Hauptseite
METAR-TAF:

METAR-TAF

Flughäfen :

RAF Wittering

Wittering, England

Breite: 52-37N, Länge: 000-28W, Höhe: 84 m

Beobachtung

Neuester Wetterbericht von vor 35 Minuten, um 01:50 UTC
Wind 8 kt aus Nordost
Temperatur 4°C
Luftfeuchtigkeit 100%
Luftdruck 1029 hPa
Sichtweite: 3300 m
feuchter Dunst

METAR: EGXT 180150Z AUTO 04008KT 3300 BR NCD 04/04 Q1029

Zeit: 02:25 (02:25 UTC)

Prognose

Neuester Wetterbericht von vor 12 Stunden und 40 Minuten, um 13:45 UTC
Gültige Prognose vom 17 um 15 UTC bis 17 um 18 UTC
Wind 10 kt aus Ost
Sichtweite: 7000 m
Leicht bewölkt in der Höhe von 1200 ft
trockener Dunst

TAF: EGXT 171345Z 1715/1718 10010KT 7000 HZ FEW012

Wetterbeobachtungen und Prognosen von mehr als 4000 Flughäfen (METAR und TAF Bericht).

Die verfügbaren Stationen werden durch gelbe und rote Markierungen auf der Karte dargestellt.

Führen Sie die Maus auf sie, um den Namen der Station zu sehen.

Darauf klicken, um die Beobachtung von Wetterbeobachtungen und Prognosen zu sehen.

Um die Karte zu ändern : klicken Sie auf den grünen Tasten mit einem schwarzen Kreuz Zum Vergrößern, auf den grünen Button mit einem Gedankenstrich zu verkleinern, oder auf die grünen Pfeile für benachbarte Karten.


METAR-TAF: